RYR6231 EPSC-EPKK
Flight info
| Callsign | RYR6231 |
|---|---|
| Flight time | 0h 54m |
| Altitude | 29000 |
| Route | APNEZ DCT DENKO L619 ADVAB L623 UWLER |
| Aircraft | B738/M-SDE3FGILRWY/SB1 |
Departure
| Time | 2026-04-20 23:55 |
|---|---|
| Airport | Solidarity Szczecin–Goleniów Airport (EPSC) |
Arrival
| Time | 2026-04-21 00:50 |
|---|---|
| Airport | Kraków John Paul II International Airport (EPKK) |
| Time | Latitude | Longitude | Altitude | Speed | Heading |
|---|---|---|---|---|---|
| 2026-04-20 23:33 | 53.59246 | 14.89398 | 131 ft | 0 kts | 48° |
| 2026-04-20 23:49 | 53.59248 | 14.89403 | 131 ft | 2 kts | 48° |
| 2026-04-20 23:49 | 53.59245 | 14.89421 | 131 ft | 1 kts | 136° |
| 2026-04-20 23:49 | 53.59237 | 14.89415 | 131 ft | 2 kts | 207° |
| 2026-04-20 23:49 | 53.59230 | 14.89390 | 131 ft | 4 kts | 239° |
| 2026-04-20 23:50 | 53.59205 | 14.89331 | 129 ft | 8 kts | 234° |
| 2026-04-20 23:50 | 53.59201 | 14.89241 | 129 ft | 8 kts | 302° |
| 2026-04-20 23:50 | 53.59239 | 14.89162 | 127 ft | 9 kts | 310° |
| 2026-04-20 23:50 | 53.59266 | 14.89066 | 129 ft | 10 kts | 266° |
| 2026-04-20 23:51 | 53.59254 | 14.88978 | 127 ft | 3 kts | 257° |
| 2026-04-20 23:51 | 53.59254 | 14.88974 | 127 ft | 0 kts | 257° |
| 2026-04-20 23:53 | 53.59253 | 14.88969 | 125 ft | 1 kts | 257° |
| 2026-04-20 23:53 | 53.59248 | 14.88934 | 126 ft | 5 kts | 257° |
| 2026-04-20 23:53 | 53.59225 | 14.88863 | 126 ft | 9 kts | 216° |
| 2026-04-20 23:54 | 53.59159 | 14.88890 | 129 ft | 11 kts | 136° |
| 2026-04-20 23:54 | 53.59095 | 14.89017 | 130 ft | 26 kts | 130° |
| 2026-04-20 23:54 | 53.58799 | 14.89595 | 138 ft | 104 kts | 131° |
| 2026-04-20 23:54 | 53.58187 | 14.90805 | 225 ft | 160 kts | 128° |
| 2026-04-20 23:55 | 53.57420 | 14.92398 | 630 ft | 193 kts | 126° |
| 2026-04-20 23:55 | 53.56505 | 14.94325 | 988 ft | 218 kts | 127° |
| 2026-04-20 23:55 | 53.55508 | 14.96207 | 1969 ft | 206 kts | 128° |
| 2026-04-20 23:55 | 53.54536 | 14.97998 | 2805 ft | 217 kts | 129° |
| 2026-04-20 23:56 | 53.53460 | 15.00022 | 3272 ft | 242 kts | 129° |
| 2026-04-20 23:56 | 53.52338 | 15.02149 | 4107 ft | 250 kts | 129° |
| 2026-04-20 23:56 | 53.51149 | 15.04308 | 5097 ft | 255 kts | 137° |
| 2026-04-20 23:56 | 53.49643 | 15.05956 | 6020 ft | 261 kts | 147° |
| 2026-04-20 23:57 | 53.48047 | 15.07455 | 6954 ft | 265 kts | 147° |
| 2026-04-20 23:57 | 53.46425 | 15.08973 | 7837 ft | 269 kts | 147° |
| 2026-04-20 23:57 | 53.44777 | 15.10524 | 8737 ft | 274 kts | 147° |
| 2026-04-20 23:57 | 53.43104 | 15.12107 | 9625 ft | 278 kts | 147° |
| 2026-04-20 23:58 | 53.41405 | 15.13722 | 10475 ft | 283 kts | 146° |
| 2026-04-20 23:58 | 53.39632 | 15.15415 | 10845 ft | 306 kts | 146° |
| 2026-04-20 23:58 | 53.37724 | 15.17240 | 11362 ft | 321 kts | 146° |
| 2026-04-20 23:58 | 53.35768 | 15.19103 | 12170 ft | 325 kts | 146° |
| 2026-04-20 23:59 | 53.33789 | 15.20986 | 13068 ft | 329 kts | 146° |
| 2026-04-20 23:59 | 53.31789 | 15.22890 | 13978 ft | 333 kts | 146° |
| 2026-04-20 23:59 | 53.29765 | 15.24817 | 14802 ft | 337 kts | 146° |
| 2026-04-20 23:59 | 53.27710 | 15.26770 | 15651 ft | 341 kts | 146° |
| 2026-04-21 00:00 | 53.25651 | 15.28765 | 16500 ft | 344 kts | 143° |
| 2026-04-21 00:00 | 53.23677 | 15.31043 | 17317 ft | 346 kts | 139° |
| 2026-04-21 00:00 | 53.21744 | 15.33487 | 18165 ft | 350 kts | 138° |
| 2026-04-21 00:00 | 53.19804 | 15.35993 | 18938 ft | 355 kts | 138° |
| 2026-04-21 00:01 | 53.17843 | 15.38518 | 19662 ft | 359 kts | 138° |
| 2026-04-21 00:01 | 53.15849 | 15.41060 | 20384 ft | 363 kts | 139° |
| 2026-04-21 00:01 | 53.13820 | 15.43623 | 21101 ft | 367 kts | 139° |
| 2026-04-21 00:01 | 53.11768 | 15.46197 | 21791 ft | 371 kts | 139° |
| 2026-04-21 00:02 | 53.09685 | 15.48796 | 22472 ft | 376 kts | 139° |
| 2026-04-21 00:02 | 53.07610 | 15.51376 | 23232 ft | 377 kts | 139° |
| 2026-04-21 00:02 | 53.05484 | 15.54012 | 24099 ft | 375 kts | 140° |
| 2026-04-21 00:02 | 53.03403 | 15.56587 | 24844 ft | 374 kts | 140° |
| 2026-04-21 00:03 | 53.01314 | 15.59171 | 25507 ft | 374 kts | 140° |
| 2026-04-21 00:03 | 52.99249 | 15.61724 | 26153 ft | 375 kts | 140° |
| 2026-04-21 00:03 | 52.97150 | 15.64315 | 26839 ft | 375 kts | 140° |
| 2026-04-21 00:03 | 52.95058 | 15.66895 | 27540 ft | 374 kts | 140° |
| 2026-04-21 00:04 | 52.92965 | 15.69473 | 28223 ft | 374 kts | 140° |
| 2026-04-21 00:04 | 52.90873 | 15.72047 | 28896 ft | 374 kts | 140° |
| 2026-04-21 00:04 | 52.88771 | 15.74631 | 29246 ft | 377 kts | 140° |
| 2026-04-21 00:05 | 52.84576 | 15.79777 | 29220 ft | 374 kts | 140° |
| 2026-04-21 00:05 | 52.80392 | 15.84942 | 29229 ft | 376 kts | 139° |
| 2026-04-21 00:06 | 52.76327 | 15.90330 | 29225 ft | 377 kts | 138° |
| 2026-04-21 00:06 | 52.72240 | 15.95797 | 29216 ft | 378 kts | 138° |
| 2026-04-21 00:07 | 52.68136 | 16.01234 | 29216 ft | 378 kts | 139° |
| 2026-04-21 00:07 | 52.64025 | 16.06647 | 29212 ft | 377 kts | 139° |
| 2026-04-21 00:08 | 52.59924 | 16.12033 | 29212 ft | 377 kts | 139° |
| 2026-04-21 00:08 | 52.55847 | 16.17374 | 29207 ft | 377 kts | 139° |
| 2026-04-21 00:09 | 52.51740 | 16.22741 | 29209 ft | 376 kts | 139° |
| 2026-04-21 00:09 | 52.47633 | 16.28102 | 29204 ft | 377 kts | 139° |
| 2026-04-21 00:10 | 52.43528 | 16.33449 | 29200 ft | 377 kts | 139° |
| 2026-04-21 00:10 | 52.39416 | 16.38794 | 29198 ft | 378 kts | 139° |
| 2026-04-21 00:11 | 52.35323 | 16.44101 | 29195 ft | 378 kts | 139° |
| 2026-04-21 00:11 | 52.31188 | 16.49449 | 29190 ft | 379 kts | 139° |
| 2026-04-21 00:12 | 52.27043 | 16.54799 | 29191 ft | 379 kts | 139° |
| 2026-04-21 00:12 | 52.22892 | 16.60141 | 29195 ft | 379 kts | 140° |
| 2026-04-21 00:13 | 52.18742 | 16.65473 | 29190 ft | 380 kts | 140° |
| 2026-04-21 00:13 | 52.14609 | 16.70768 | 29186 ft | 380 kts | 140° |
| 2026-04-21 00:14 | 52.10690 | 16.76510 | 29195 ft | 378 kts | 131° |
| 2026-04-21 00:14 | 52.07097 | 16.82677 | 29184 ft | 378 kts | 131° |
| 2026-04-21 00:15 | 52.03472 | 16.88884 | 29182 ft | 378 kts | 131° |
| 2026-04-21 00:15 | 51.99820 | 16.95048 | 29182 ft | 379 kts | 131° |
| 2026-04-21 00:16 | 51.96151 | 17.01197 | 29178 ft | 379 kts | 131° |
| 2026-04-21 00:16 | 51.92499 | 17.07296 | 29177 ft | 379 kts | 131° |
| 2026-04-21 00:17 | 51.88819 | 17.13429 | 29174 ft | 379 kts | 132° |
| 2026-04-21 00:17 | 51.85138 | 17.19551 | 29173 ft | 379 kts | 132° |
| 2026-04-21 00:18 | 51.81462 | 17.25666 | 29171 ft | 379 kts | 131° |
| 2026-04-21 00:18 | 51.77806 | 17.31829 | 29166 ft | 379 kts | 131° |
| 2026-04-21 00:19 | 51.74150 | 17.37970 | 29168 ft | 379 kts | 131° |
| 2026-04-21 00:19 | 51.70475 | 17.44073 | 29162 ft | 379 kts | 132° |
| 2026-04-21 00:20 | 51.66769 | 17.50137 | 29160 ft | 379 kts | 133° |
| 2026-04-21 00:20 | 51.63059 | 17.56192 | 29158 ft | 379 kts | 133° |
| 2026-04-21 00:21 | 51.59367 | 17.62213 | 29154 ft | 379 kts | 133° |
| 2026-04-21 00:21 | 51.55656 | 17.68254 | 29154 ft | 379 kts | 133° |
| 2026-04-21 00:22 | 51.52570 | 17.73268 | 29153 ft | 379 kts | 133° |
| 2026-04-21 00:22 | 51.48854 | 17.79291 | 29149 ft | 380 kts | 133° |
| 2026-04-21 00:23 | 51.45135 | 17.85306 | 29149 ft | 380 kts | 133° |
| 2026-04-21 00:23 | 51.41412 | 17.91311 | 29146 ft | 380 kts | 133° |
| 2026-04-21 00:24 | 51.37685 | 17.97309 | 29141 ft | 380 kts | 133° |
| 2026-04-21 00:24 | 51.35816 | 18.00310 | 28992 ft | 382 kts | 133° |
| 2026-04-21 00:24 | 51.33938 | 18.03323 | 28616 ft | 380 kts | 133° |
| 2026-04-21 00:24 | 51.32072 | 18.06312 | 28146 ft | 379 kts | 133° |
| 2026-04-21 00:25 | 51.30219 | 18.09277 | 27773 ft | 375 kts | 133° |
| 2026-04-21 00:25 | 51.28408 | 18.12171 | 27386 ft | 372 kts | 133° |
| 2026-04-21 00:25 | 51.26565 | 18.15114 | 27009 ft | 368 kts | 133° |
| 2026-04-21 00:25 | 51.24784 | 18.17953 | 26634 ft | 366 kts | 133° |
| 2026-04-21 00:26 | 51.22986 | 18.20817 | 26265 ft | 363 kts | 134° |
| 2026-04-21 00:26 | 51.21205 | 18.23651 | 25895 ft | 360 kts | 134° |
| 2026-04-21 00:26 | 51.19436 | 18.26462 | 25534 ft | 358 kts | 134° |
| 2026-04-21 00:26 | 51.17678 | 18.29252 | 25170 ft | 355 kts | 134° |
| 2026-04-21 00:27 | 51.15930 | 18.32025 | 24813 ft | 353 kts | 134° |
| 2026-04-21 00:27 | 51.14192 | 18.34778 | 24457 ft | 351 kts | 134° |
| 2026-04-21 00:27 | 51.12464 | 18.37511 | 24102 ft | 349 kts | 134° |
| 2026-04-21 00:27 | 51.10741 | 18.40234 | 23745 ft | 348 kts | 134° |
| 2026-04-21 00:28 | 51.09029 | 18.42938 | 23333 ft | 346 kts | 134° |
| 2026-04-21 00:28 | 51.07328 | 18.45619 | 22952 ft | 343 kts | 134° |
| 2026-04-21 00:28 | 51.05639 | 18.48280 | 22608 ft | 340 kts | 134° |
| 2026-04-21 00:28 | 51.03965 | 18.50916 | 22254 ft | 337 kts | 134° |
| 2026-04-21 00:29 | 51.02307 | 18.53523 | 21895 ft | 334 kts | 134° |
| 2026-04-21 00:29 | 51.00659 | 18.56109 | 21556 ft | 331 kts | 134° |
| 2026-04-21 00:29 | 50.99000 | 18.58636 | 21205 ft | 329 kts | 139° |
| 2026-04-21 00:29 | 50.97131 | 18.60682 | 21004 ft | 323 kts | 151° |
| 2026-04-21 00:30 | 50.95143 | 18.62310 | 20735 ft | 319 kts | 152° |
| 2026-04-21 00:30 | 50.93163 | 18.63869 | 20409 ft | 317 kts | 153° |
| 2026-04-21 00:30 | 50.91190 | 18.65410 | 20088 ft | 316 kts | 153° |
| 2026-04-21 00:30 | 50.89220 | 18.66952 | 19753 ft | 314 kts | 153° |
| 2026-04-21 00:31 | 50.87285 | 18.68472 | 19428 ft | 313 kts | 152° |
| 2026-04-21 00:31 | 50.85336 | 18.70007 | 19089 ft | 312 kts | 152° |
| 2026-04-21 00:31 | 50.83395 | 18.71540 | 18771 ft | 311 kts | 152° |
| 2026-04-21 00:31 | 50.81461 | 18.73070 | 18447 ft | 311 kts | 152° |
| 2026-04-21 00:32 | 50.79531 | 18.74596 | 18073 ft | 310 kts | 152° |
| 2026-04-21 00:32 | 50.77604 | 18.76121 | 17708 ft | 308 kts | 152° |
| 2026-04-21 00:32 | 50.75692 | 18.77632 | 17374 ft | 307 kts | 152° |
| 2026-04-21 00:32 | 50.73789 | 18.79136 | 17049 ft | 305 kts | 152° |
| 2026-04-21 00:33 | 50.71897 | 18.80630 | 16722 ft | 303 kts | 152° |
| 2026-04-21 00:33 | 50.70018 | 18.82113 | 16397 ft | 301 kts | 152° |
| 2026-04-21 00:33 | 50.68147 | 18.83588 | 16073 ft | 300 kts | 152° |
| 2026-04-21 00:33 | 50.66284 | 18.85056 | 15753 ft | 298 kts | 152° |
| 2026-04-21 00:34 | 50.64432 | 18.86514 | 15436 ft | 297 kts | 152° |
| 2026-04-21 00:34 | 50.62588 | 18.87964 | 15115 ft | 296 kts | 152° |
| 2026-04-21 00:34 | 50.60746 | 18.89411 | 14803 ft | 295 kts | 152° |
| 2026-04-21 00:34 | 50.58915 | 18.90849 | 14491 ft | 294 kts | 151° |
| 2026-04-21 00:35 | 50.57085 | 18.92285 | 14171 ft | 293 kts | 151° |
| 2026-04-21 00:35 | 50.55262 | 18.93713 | 13861 ft | 292 kts | 151° |
| 2026-04-21 00:35 | 50.53468 | 18.95119 | 13506 ft | 292 kts | 152° |
| 2026-04-21 00:35 | 50.51654 | 18.96538 | 13170 ft | 290 kts | 152° |
| 2026-04-21 00:36 | 50.49853 | 18.97946 | 12844 ft | 289 kts | 152° |
| 2026-04-21 00:36 | 50.48059 | 18.99347 | 12531 ft | 287 kts | 152° |
| 2026-04-21 00:36 | 50.46277 | 19.00738 | 12206 ft | 285 kts | 152° |
| 2026-04-21 00:36 | 50.44504 | 19.02120 | 11913 ft | 284 kts | 152° |
| 2026-04-21 00:37 | 50.42742 | 19.03493 | 11602 ft | 282 kts | 152° |
| 2026-04-21 00:37 | 50.40989 | 19.04858 | 11295 ft | 281 kts | 152° |
| 2026-04-21 00:37 | 50.39246 | 19.06214 | 10996 ft | 279 kts | 152° |
| 2026-04-21 00:37 | 50.37508 | 19.07564 | 10688 ft | 278 kts | 152° |
| 2026-04-21 00:38 | 50.35776 | 19.08910 | 10382 ft | 277 kts | 152° |
| 2026-04-21 00:38 | 50.34057 | 19.10243 | 10182 ft | 272 kts | 152° |
| 2026-04-21 00:38 | 50.32381 | 19.11542 | 9955 ft | 268 kts | 152° |
| 2026-04-21 00:38 | 50.30710 | 19.12837 | 9654 ft | 267 kts | 152° |
| 2026-04-21 00:39 | 50.29052 | 19.14119 | 9350 ft | 266 kts | 152° |
| 2026-04-21 00:39 | 50.27401 | 19.15396 | 9078 ft | 263 kts | 152° |
| 2026-04-21 00:39 | 50.25769 | 19.16657 | 8787 ft | 261 kts | 152° |
| 2026-04-21 00:39 | 50.24144 | 19.17913 | 8499 ft | 259 kts | 152° |
| 2026-04-21 00:40 | 50.22531 | 19.19157 | 8212 ft | 258 kts | 152° |
| 2026-04-21 00:40 | 50.20929 | 19.20393 | 7958 ft | 255 kts | 152° |
| 2026-04-21 00:40 | 50.19339 | 19.21618 | 7672 ft | 254 kts | 152° |
| 2026-04-21 00:40 | 50.17758 | 19.22836 | 7395 ft | 253 kts | 152° |
| 2026-04-21 00:41 | 50.16182 | 19.24049 | 7115 ft | 252 kts | 152° |
| 2026-04-21 00:41 | 50.14609 | 19.25259 | 6805 ft | 252 kts | 151° |
| 2026-04-21 00:41 | 50.13036 | 19.26467 | 6523 ft | 251 kts | 151° |
| 2026-04-21 00:41 | 50.11466 | 19.27673 | 6200 ft | 251 kts | 151° |
| 2026-04-21 00:42 | 50.09904 | 19.28872 | 5910 ft | 250 kts | 151° |
| 2026-04-21 00:42 | 50.08350 | 19.30064 | 5630 ft | 248 kts | 151° |
| 2026-04-21 00:42 | 50.06821 | 19.31234 | 5352 ft | 247 kts | 150° |
| 2026-04-21 00:42 | 50.05296 | 19.32400 | 5210 ft | 240 kts | 150° |
| 2026-04-21 00:43 | 50.03824 | 19.33529 | 5091 ft | 232 kts | 148° |
| 2026-04-21 00:43 | 50.02683 | 19.35153 | 4975 ft | 218 kts | 116° |
| 2026-04-21 00:43 | 50.02436 | 19.37382 | 4829 ft | 209 kts | 85° |
| 2026-04-21 00:43 | 50.02575 | 19.39610 | 4671 ft | 204 kts | 84° |
| 2026-04-21 00:44 | 50.02777 | 19.41777 | 4477 ft | 201 kts | 81° |
| 2026-04-21 00:44 | 50.03032 | 19.43916 | 4281 ft | 201 kts | 80° |
| 2026-04-21 00:44 | 50.03311 | 19.46055 | 4106 ft | 202 kts | 79° |
| 2026-04-21 00:45 | 50.03875 | 19.50223 | 3740 ft | 188 kts | 79° |
| 2026-04-21 00:45 | 50.04138 | 19.52148 | 3593 ft | 177 kts | 79° |
| 2026-04-21 00:45 | 50.04389 | 19.53977 | 3446 ft | 170 kts | 79° |
| 2026-04-21 00:45 | 50.04633 | 19.55761 | 3305 ft | 167 kts | 79° |
| 2026-04-21 00:46 | 50.04869 | 19.57483 | 3151 ft | 156 kts | 79° |
| 2026-04-21 00:46 | 50.05090 | 19.59091 | 3036 ft | 152 kts | 79° |
| 2026-04-21 00:46 | 50.05312 | 19.60707 | 2872 ft | 151 kts | 79° |
| 2026-04-21 00:46 | 50.05523 | 19.62240 | 2674 ft | 139 kts | 79° |
| 2026-04-21 00:47 | 50.05720 | 19.63666 | 2514 ft | 133 kts | 79° |
| 2026-04-21 00:47 | 50.05912 | 19.65062 | 2354 ft | 131 kts | 79° |
| 2026-04-21 00:47 | 50.06102 | 19.66442 | 2177 ft | 132 kts | 79° |
| 2026-04-21 00:47 | 50.06298 | 19.67859 | 1991 ft | 135 kts | 78° |
| 2026-04-21 00:48 | 50.06495 | 19.69285 | 1811 ft | 137 kts | 78° |
| 2026-04-21 00:48 | 50.06695 | 19.70739 | 1627 ft | 137 kts | 79° |
| 2026-04-21 00:48 | 50.06891 | 19.72201 | 1451 ft | 140 kts | 77° |
| 2026-04-21 00:48 | 50.07103 | 19.73679 | 1289 ft | 140 kts | 77° |
| 2026-04-21 00:49 | 50.07314 | 19.75159 | 1090 ft | 140 kts | 78° |
| 2026-04-21 00:49 | 50.07520 | 19.76648 | 878 ft | 139 kts | 78° |
| 2026-04-21 00:49 | 50.07716 | 19.78056 | 798 ft | 122 kts | 78° |
| 2026-04-21 00:49 | 50.07862 | 19.79116 | 800 ft | 79 kts | 78° |
| 2026-04-21 00:50 | 50.07941 | 19.79686 | 800 ft | 35 kts | 77° |
| 2026-04-21 00:50 | 50.07988 | 19.80015 | 800 ft | 23 kts | 78° |
| 2026-04-21 00:50 | 50.08013 | 19.80200 | 799 ft | 14 kts | 78° |
| 2026-04-21 00:50 | 50.07985 | 19.80290 | 799 ft | 9 kts | 167° |
| 2026-04-21 00:51 | 50.07922 | 19.80310 | 799 ft | 9 kts | 168° |
| 2026-04-21 00:51 | 50.07861 | 19.80331 | 799 ft | 9 kts | 168° |
| 2026-04-21 00:51 | 50.07801 | 19.80351 | 799 ft | 9 kts | 168° |
| 2026-04-21 00:51 | 50.07743 | 19.80370 | 799 ft | 8 kts | 168° |
| 2026-04-21 00:52 | 50.07687 | 19.80389 | 799 ft | 8 kts | 168° |
| 2026-04-21 00:52 | 50.07633 | 19.80407 | 799 ft | 8 kts | 168° |
| 2026-04-21 00:52 | 50.07577 | 19.80423 | 799 ft | 9 kts | 180° |
| 2026-04-21 00:52 | 50.07516 | 19.80399 | 799 ft | 10 kts | 197° |
| 2026-04-21 00:53 | 50.07451 | 19.80353 | 799 ft | 11 kts | 232° |
| 2026-04-21 00:53 | 50.07429 | 19.80236 | 799 ft | 12 kts | 257° |
| 2026-04-21 00:53 | 50.07410 | 19.80103 | 799 ft | 13 kts | 257° |
| 2026-04-21 00:53 | 50.07390 | 19.79960 | 799 ft | 14 kts | 257° |
| 2026-04-21 00:54 | 50.07372 | 19.79838 | 799 ft | 5 kts | 257° |
| 2026-04-21 00:54 | 50.07365 | 19.79785 | 799 ft | 5 kts | 256° |
| 2026-04-21 00:54 | 50.07342 | 19.79749 | 799 ft | 5 kts | 199° |
| 2026-04-21 00:54 | 50.07309 | 19.79763 | 799 ft | 5 kts | 155° |
| 2026-04-21 00:55 | 50.07296 | 19.79770 | 799 ft | 1 kts | 163° |
| 2026-04-21 00:55 | 50.07286 | 19.79774 | 799 ft | 2 kts | 167° |
| 2026-04-21 00:55 | 50.07277 | 19.79777 | 799 ft | 1 kts | 167° |
| 2026-04-21 00:55 | 50.07274 | 19.79778 | 799 ft | 1 kts | 167° |
| 2026-04-21 00:56 | 50.07273 | 19.79779 | 799 ft | 0 kts | 167° |